sensor_id;sensor_type;location;lat;lon;timestamp;P1;durP1;ratioP1;P2;durP2;ratioP2
35943;SDS011;74514;54.776;9.436;2024-03-02T00:01:35;80.53;;;27.48;;
35943;SDS011;74514;54.776;9.436;2024-03-02T00:04:05;78.65;;;28.15;;
35943;SDS011;74514;54.776;9.436;2024-03-02T00:06:34;78.75;;;25.77;;
35943;SDS011;74514;54.776;9.436;2024-03-02T00:09:02;79.68;;;26.17;;
35943;SDS011;74514;54.776;9.436;2024-03-02T00:11:30;74.82;;;25.17;;
35943;SDS011;74514;54.776;9.436;2024-03-02T00:13:57;74.47;;;24.30;;
35943;SDS011;74514;54.776;9.436;2024-03-02T00:16:28;80.07;;;26.55;;
35943;SDS011;74514;54.776;9.436;2024-03-02T00:19:00;68.95;;;26.38;;
35943;SDS011;74514;54.776;9.436;2024-03-02T00:21:29;78.43;;;24.92;;
35943;SDS011;74514;54.776;9.436;2024-03-02T00:23:57;79.35;;;26.92;;
35943;SDS011;74514;54.776;9.436;2024-03-02T00:26:24;78.68;;;25.92;;
35943;SDS011;74514;54.776;9.436;2024-03-02T00:28:53;73.32;;;25.40;;
35943;SDS011;74514;54.776;9.436;2024-03-02T00:31:21;79.10;;;25.23;;
35943;SDS011;74514;54.776;9.436;2024-03-02T00:33:49;85.57;;;26.85;;
35943;SDS011;74514;54.776;9.436;2024-03-02T00:36:21;77.90;;;25.90;;
35943;SDS011;74514;54.776;9.436;2024-03-02T00:38:50;76.55;;;24.88;;
35943;SDS011;74514;54.776;9.436;2024-03-02T00:41:22;75.85;;;24.60;;
35943;SDS011;74514;54.776;9.436;2024-03-02T00:44:03;72.05;;;25.63;;
35943;SDS011;74514;54.776;9.436;2024-03-02T00:46:35;65.00;;;24.92;;
35943;SDS011;74514;54.776;9.436;2024-03-02T00:49:03;68.57;;;23.48;;
35943;SDS011;74514;54.776;9.436;2024-03-02T00:51:32;70.68;;;25.35;;
35943;SDS011;74514;54.776;9.436;2024-03-02T00:54:01;69.38;;;22.58;;
35943;SDS011;74514;54.776;9.436;2024-03-02T00:56:39;82.95;;;25.30;;
35943;SDS011;74514;54.776;9.436;2024-03-02T00:59:09;64.70;;;22.52;;
35943;SDS011;74514;54.776;9.436;2024-03-02T01:01:37;69.13;;;23.38;;
35943;SDS011;74514;54.776;9.436;2024-03-02T01:04:04;81.15;;;24.90;;
35943;SDS011;74514;54.776;9.436;2024-03-02T01:06:32;72.50;;;24.42;;
35943;SDS011;74514;54.776;9.436;2024-03-02T01:08:59;73.28;;;25.23;;
35943;SDS011;74514;54.776;9.436;2024-03-02T01:11:27;69.95;;;24.30;;
35943;SDS011;74514;54.776;9.436;2024-03-02T01:13:55;71.13;;;25.00;;
35943;SDS011;74514;54.776;9.436;2024-03-02T01:16:22;71.10;;;24.60;;
35943;SDS011;74514;54.776;9.436;2024-03-02T01:18:50;77.75;;;22.90;;
35943;SDS011;74514;54.776;9.436;2024-03-02T01:21:17;70.65;;;22.75;;
35943;SDS011;74514;54.776;9.436;2024-03-02T01:23:45;72.35;;;25.23;;
35943;SDS011;74514;54.776;9.436;2024-03-02T01:26:13;83.03;;;24.25;;
35943;SDS011;74514;54.776;9.436;2024-03-02T01:28:40;69.28;;;23.88;;
35943;SDS011;74514;54.776;9.436;2024-03-02T01:31:07;70.88;;;24.52;;
35943;SDS011;74514;54.776;9.436;2024-03-02T01:33:35;78.35;;;25.77;;
35943;SDS011;74514;54.776;9.436;2024-03-02T01:36:02;75.43;;;26.73;;
35943;SDS011;74514;54.776;9.436;2024-03-02T01:38:30;74.90;;;24.20;;
35943;SDS011;74514;54.776;9.436;2024-03-02T01:40:58;70.05;;;25.85;;
35943;SDS011;74514;54.776;9.436;2024-03-02T01:43:25;72.93;;;27.20;;
35943;SDS011;74514;54.776;9.436;2024-03-02T01:45:53;74.18;;;24.70;;
35943;SDS011;74514;54.776;9.436;2024-03-02T01:48:21;66.20;;;24.08;;
35943;SDS011;74514;54.776;9.436;2024-03-02T01:50:48;75.95;;;23.92;;
35943;SDS011;74514;54.776;9.436;2024-03-02T01:53:15;73.90;;;24.92;;
35943;SDS011;74514;54.776;9.436;2024-03-02T01:55:43;69.38;;;24.08;;
35943;SDS011;74514;54.776;9.436;2024-03-02T01:58:10;74.20;;;26.35;;
35943;SDS011;74514;54.776;9.436;2024-03-02T02:00:38;69.18;;;23.58;;
35943;SDS011;74514;54.776;9.436;2024-03-02T02:03:05;79.38;;;26.63;;
35943;SDS011;74514;54.776;9.436;2024-03-02T02:05:34;66.95;;;23.55;;
35943;SDS011;74514;54.776;9.436;2024-03-02T02:08:02;71.95;;;24.50;;
35943;SDS011;74514;54.776;9.436;2024-03-02T02:10:29;72.22;;;23.73;;
35943;SDS011;74514;54.776;9.436;2024-03-02T02:12:57;74.43;;;24.27;;
35943;SDS011;74514;54.776;9.436;2024-03-02T02:15:31;74.05;;;24.50;;
35943;SDS011;74514;54.776;9.436;2024-03-02T02:17:59;71.35;;;24.00;;
35943;SDS011;74514;54.776;9.436;2024-03-02T02:20:26;72.32;;;24.00;;
35943;SDS011;74514;54.776;9.436;2024-03-02T02:22:57;70.28;;;23.67;;
35943;SDS011;74514;54.776;9.436;2024-03-02T02:25:25;75.97;;;24.10;;
35943;SDS011;74514;54.776;9.436;2024-03-02T02:27:53;65.88;;;22.83;;
35943;SDS011;74514;54.776;9.436;2024-03-02T02:30:21;75.30;;;25.40;;
35943;SDS011;74514;54.776;9.436;2024-03-02T02:35:16;68.03;;;20.80;;
35943;SDS011;74514;54.776;9.436;2024-03-02T02:37:44;63.83;;;24.55;;
35943;SDS011;74514;54.776;9.436;2024-03-02T02:40:12;71.25;;;22.08;;
35943;SDS011;74514;54.776;9.436;2024-03-02T02:42:40;70.03;;;23.60;;
35943;SDS011;74514;54.776;9.436;2024-03-02T02:45:07;71.68;;;24.23;;
35943;SDS011;74514;54.776;9.436;2024-03-02T02:47:35;72.07;;;23.52;;
35943;SDS011;74514;54.776;9.436;2024-03-02T02:50:03;67.03;;;24.42;;
35943;SDS011;74514;54.776;9.436;2024-03-02T02:52:31;68.55;;;24.02;;
35943;SDS011;74514;54.776;9.436;2024-03-02T02:55:00;67.85;;;24.38;;
35943;SDS011;74514;54.776;9.436;2024-03-02T02:57:27;66.40;;;22.48;;
35943;SDS011;74514;54.776;9.436;2024-03-02T02:59:57;72.25;;;23.52;;
35943;SDS011;74514;54.776;9.436;2024-03-02T03:02:24;71.68;;;26.58;;
35943;SDS011;74514;54.776;9.436;2024-03-02T03:04:51;80.05;;;25.88;;
35943;SDS011;74514;54.776;9.436;2024-03-02T03:07:19;66.07;;;23.73;;
35943;SDS011;74514;54.776;9.436;2024-03-02T03:09:46;59.65;;;22.65;;
35943;SDS011;74514;54.776;9.436;2024-03-02T03:12:14;64.20;;;22.83;;
35943;SDS011;74514;54.776;9.436;2024-03-02T03:14:41;61.30;;;23.45;;
35943;SDS011;74514;54.776;9.436;2024-03-02T03:17:09;69.43;;;23.95;;
35943;SDS011;74514;54.776;9.436;2024-03-02T03:19:38;68.97;;;24.73;;
35943;SDS011;74514;54.776;9.436;2024-03-02T03:22:05;66.38;;;23.40;;
35943;SDS011;74514;54.776;9.436;2024-03-02T03:24:33;74.45;;;25.95;;
35943;SDS011;74514;54.776;9.436;2024-03-02T03:27:00;75.55;;;25.33;;
35943;SDS011;74514;54.776;9.436;2024-03-02T03:29:27;66.57;;;24.17;;
35943;SDS011;74514;54.776;9.436;2024-03-02T03:31:55;74.20;;;23.98;;
35943;SDS011;74514;54.776;9.436;2024-03-02T03:34:22;79.65;;;25.73;;
35943;SDS011;74514;54.776;9.436;2024-03-02T03:36:49;76.57;;;23.77;;
35943;SDS011;74514;54.776;9.436;2024-03-02T03:39:17;78.63;;;26.00;;
35943;SDS011;74514;54.776;9.436;2024-03-02T03:41:45;73.75;;;24.38;;
35943;SDS011;74514;54.776;9.436;2024-03-02T03:44:12;69.03;;;23.83;;
35943;SDS011;74514;54.776;9.436;2024-03-02T03:46:39;77.93;;;25.35;;
35943;SDS011;74514;54.776;9.436;2024-03-02T03:49:07;79.10;;;25.35;;
35943;SDS011;74514;54.776;9.436;2024-03-02T03:51:34;71.05;;;24.88;;
35943;SDS011;74514;54.776;9.436;2024-03-02T03:54:02;89.75;;;29.17;;
35943;SDS011;74514;54.776;9.436;2024-03-02T03:56:30;85.60;;;27.80;;
35943;SDS011;74514;54.776;9.436;2024-03-02T03:58:57;81.43;;;27.05;;
35943;SDS011;74514;54.776;9.436;2024-03-02T04:01:26;80.13;;;28.38;;
35943;SDS011;74514;54.776;9.436;2024-03-02T04:03:54;80.82;;;25.00;;
35943;SDS011;74514;54.776;9.436;2024-03-02T04:06:21;76.90;;;26.23;;
35943;SDS011;74514;54.776;9.436;2024-03-02T04:08:48;87.90;;;26.63;;
35943;SDS011;74514;54.776;9.436;2024-03-02T04:11:16;82.68;;;26.23;;
35943;SDS011;74514;54.776;9.436;2024-03-02T04:13:43;76.70;;;26.48;;
35943;SDS011;74514;54.776;9.436;2024-03-02T04:16:11;80.35;;;27.02;;
35943;SDS011;74514;54.776;9.436;2024-03-02T04:18:39;85.38;;;27.40;;
35943;SDS011;74514;54.776;9.436;2024-03-02T04:21:06;90.93;;;29.90;;
35943;SDS011;74514;54.776;9.436;2024-03-02T04:23:34;86.60;;;30.85;;
35943;SDS011;74514;54.776;9.436;2024-03-02T04:26:01;82.63;;;27.13;;
35943;SDS011;74514;54.776;9.436;2024-03-02T04:28:29;89.57;;;27.38;;
35943;SDS011;74514;54.776;9.436;2024-03-02T04:30:56;99.18;;;30.10;;
35943;SDS011;74514;54.776;9.436;2024-03-02T04:33:23;97.95;;;29.10;;
35943;SDS011;74514;54.776;9.436;2024-03-02T04:35:51;98.05;;;29.90;;
35943;SDS011;74514;54.776;9.436;2024-03-02T04:38:18;88.57;;;28.90;;
35943;SDS011;74514;54.776;9.436;2024-03-02T04:40:45;99.65;;;30.55;;
35943;SDS011;74514;54.776;9.436;2024-03-02T04:43:13;101.00;;;30.60;;
35943;SDS011;74514;54.776;9.436;2024-03-02T04:45:43;95.25;;;29.30;;
35943;SDS011;74514;54.776;9.436;2024-03-02T04:48:10;97.38;;;31.50;;
35943;SDS011;74514;54.776;9.436;2024-03-02T04:50:38;93.65;;;31.25;;
35943;SDS011;74514;54.776;9.436;2024-03-02T04:53:05;103.57;;;31.75;;
35943;SDS011;74514;54.776;9.436;2024-03-02T04:55:33;96.75;;;31.02;;
35943;SDS011;74514;54.776;9.436;2024-03-02T04:58:06;96.65;;;29.73;;
35943;SDS011;74514;54.776;9.436;2024-03-02T05:00:34;92.65;;;28.10;;
35943;SDS011;74514;54.776;9.436;2024-03-02T05:03:02;90.03;;;27.45;;
35943;SDS011;74514;54.776;9.436;2024-03-02T05:05:29;100.47;;;32.42;;
35943;SDS011;74514;54.776;9.436;2024-03-02T05:07:57;93.25;;;29.33;;
35943;SDS011;74514;54.776;9.436;2024-03-02T05:10:24;93.53;;;30.05;;
35943;SDS011;74514;54.776;9.436;2024-03-02T05:12:52;92.50;;;28.70;;
35943;SDS011;74514;54.776;9.436;2024-03-02T05:15:27;101.38;;;30.98;;
35943;SDS011;74514;54.776;9.436;2024-03-02T05:17:55;82.35;;;29.50;;
35943;SDS011;74514;54.776;9.436;2024-03-02T05:20:24;98.47;;;30.77;;
35943;SDS011;74514;54.776;9.436;2024-03-02T05:22:51;91.00;;;28.05;;
35943;SDS011;74514;54.776;9.436;2024-03-02T05:25:19;86.85;;;27.70;;
35943;SDS011;74514;54.776;9.436;2024-03-02T05:27:46;86.57;;;30.83;;
35943;SDS011;74514;54.776;9.436;2024-03-02T05:30:14;85.20;;;28.85;;
35943;SDS011;74514;54.776;9.436;2024-03-02T05:32:42;100.18;;;30.98;;
35943;SDS011;74514;54.776;9.436;2024-03-02T05:35:09;87.45;;;27.23;;
35943;SDS011;74514;54.776;9.436;2024-03-02T05:37:38;87.72;;;29.38;;
35943;SDS011;74514;54.776;9.436;2024-03-02T05:40:06;89.53;;;30.48;;
35943;SDS011;74514;54.776;9.436;2024-03-02T05:42:34;105.72;;;31.17;;
35943;SDS011;74514;54.776;9.436;2024-03-02T05:45:01;96.50;;;32.45;;
35943;SDS011;74514;54.776;9.436;2024-03-02T05:47:28;105.75;;;30.58;;
35943;SDS011;74514;54.776;9.436;2024-03-02T05:49:56;104.00;;;31.67;;
35943;SDS011;74514;54.776;9.436;2024-03-02T05:52:23;93.53;;;29.63;;
35943;SDS011;74514;54.776;9.436;2024-03-02T05:54:50;97.00;;;31.10;;
35943;SDS011;74514;54.776;9.436;2024-03-02T05:57:18;111.60;;;32.53;;
35943;SDS011;74514;54.776;9.436;2024-03-02T06:00:04;97.72;;;33.42;;
35943;SDS011;74514;54.776;9.436;2024-03-02T06:02:41;106.18;;;30.65;;
35943;SDS011;74514;54.776;9.436;2024-03-02T06:05:08;98.05;;;29.80;;
35943;SDS011;74514;54.776;9.436;2024-03-02T06:07:36;97.30;;;30.35;;
35943;SDS011;74514;54.776;9.436;2024-03-02T06:10:03;102.40;;;32.05;;
35943;SDS011;74514;54.776;9.436;2024-03-02T06:12:31;101.68;;;31.58;;
35943;SDS011;74514;54.776;9.436;2024-03-02T06:14:58;95.47;;;31.77;;
35943;SDS011;74514;54.776;9.436;2024-03-02T06:17:26;113.15;;;32.08;;
35943;SDS011;74514;54.776;9.436;2024-03-02T06:19:53;112.22;;;33.10;;
35943;SDS011;74514;54.776;9.436;2024-03-02T06:22:20;111.22;;;33.15;;
35943;SDS011;74514;54.776;9.436;2024-03-02T06:24:50;119.97;;;32.00;;
35943;SDS011;74514;54.776;9.436;2024-03-02T06:27:17;98.85;;;32.97;;
35943;SDS011;74514;54.776;9.436;2024-03-02T06:29:45;115.28;;;34.08;;
35943;SDS011;74514;54.776;9.436;2024-03-02T06:32:12;105.60;;;33.38;;
35943;SDS011;74514;54.776;9.436;2024-03-02T06:34:39;101.03;;;31.60;;
35943;SDS011;74514;54.776;9.436;2024-03-02T06:37:07;119.38;;;35.35;;
35943;SDS011;74514;54.776;9.436;2024-03-02T06:39:34;112.97;;;33.03;;
35943;SDS011;74514;54.776;9.436;2024-03-02T06:42:03;121.80;;;34.60;;
35943;SDS011;74514;54.776;9.436;2024-03-02T06:44:31;114.93;;;31.45;;
35943;SDS011;74514;54.776;9.436;2024-03-02T06:46:58;128.15;;;36.45;;
35943;SDS011;74514;54.776;9.436;2024-03-02T06:49:25;128.00;;;36.10;;
35943;SDS011;74514;54.776;9.436;2024-03-02T06:51:53;125.03;;;34.20;;
35943;SDS011;74514;54.776;9.436;2024-03-02T06:54:20;117.95;;;33.92;;
35943;SDS011;74514;54.776;9.436;2024-03-02T06:56:48;110.80;;;32.72;;
35943;SDS011;74514;54.776;9.436;2024-03-02T06:59:15;111.07;;;32.75;;
35943;SDS011;74514;54.776;9.436;2024-03-02T07:01:42;108.07;;;33.53;;
35943;SDS011;74514;54.776;9.436;2024-03-02T07:04:11;103.90;;;33.80;;
35943;SDS011;74514;54.776;9.436;2024-03-02T07:06:38;103.18;;;32.90;;
35943;SDS011;74514;54.776;9.436;2024-03-02T07:09:06;119.07;;;37.05;;
35943;SDS011;74514;54.776;9.436;2024-03-02T07:11:38;118.55;;;37.10;;
35943;SDS011;74514;54.776;9.436;2024-03-02T07:14:05;109.63;;;33.22;;
35943;SDS011;74514;54.776;9.436;2024-03-02T07:16:33;111.03;;;33.63;;
35943;SDS011;74514;54.776;9.436;2024-03-02T07:19:02;114.90;;;34.97;;
35943;SDS011;74514;54.776;9.436;2024-03-02T07:21:30;98.97;;;32.63;;
35943;SDS011;74514;54.776;9.436;2024-03-02T07:23:57;101.28;;;33.08;;
35943;SDS011;74514;54.776;9.436;2024-03-02T07:26:25;97.15;;;31.20;;
35943;SDS011;74514;54.776;9.436;2024-03-02T07:28:55;95.13;;;32.17;;
35943;SDS011;74514;54.776;9.436;2024-03-02T07:31:22;114.60;;;32.72;;
35943;SDS011;74514;54.776;9.436;2024-03-02T07:33:50;100.03;;;33.97;;
35943;SDS011;74514;54.776;9.436;2024-03-02T07:36:17;89.85;;;30.08;;
35943;SDS011;74514;54.776;9.436;2024-03-02T07:38:48;95.93;;;32.22;;
35943;SDS011;74514;54.776;9.436;2024-03-02T07:41:17;109.60;;;33.60;;
35943;SDS011;74514;54.776;9.436;2024-03-02T07:43:45;103.22;;;32.65;;
35943;SDS011;74514;54.776;9.436;2024-03-02T07:46:12;95.53;;;30.77;;
35943;SDS011;74514;54.776;9.436;2024-03-02T07:48:39;106.60;;;32.67;;
35943;SDS011;74514;54.776;9.436;2024-03-02T07:51:07;92.07;;;31.77;;
35943;SDS011;74514;54.776;9.436;2024-03-02T07:53:34;94.32;;;33.05;;
35943;SDS011;74514;54.776;9.436;2024-03-02T07:56:01;99.70;;;32.70;;
35943;SDS011;74514;54.776;9.436;2024-03-02T07:58:30;87.75;;;29.05;;
35943;SDS011;74514;54.776;9.436;2024-03-02T08:00:58;79.47;;;27.17;;
35943;SDS011;74514;54.776;9.436;2024-03-02T08:03:28;91.35;;;29.65;;
35943;SDS011;74514;54.776;9.436;2024-03-02T08:05:55;85.60;;;29.63;;
35943;SDS011;74514;54.776;9.436;2024-03-02T08:08:22;96.95;;;31.38;;
35943;SDS011;74514;54.776;9.436;2024-03-02T08:10:52;89.40;;;28.90;;
35943;SDS011;74514;54.776;9.436;2024-03-02T08:13:19;76.10;;;27.23;;
35943;SDS011;74514;54.776;9.436;2024-03-02T08:15:47;84.13;;;27.63;;
35943;SDS011;74514;54.776;9.436;2024-03-02T08:18:14;87.60;;;28.17;;
35943;SDS011;74514;54.776;9.436;2024-03-02T08:20:41;91.97;;;28.70;;
35943;SDS011;74514;54.776;9.436;2024-03-02T08:23:09;83.05;;;29.00;;
35943;SDS011;74514;54.776;9.436;2024-03-02T08:25:36;87.10;;;28.98;;
35943;SDS011;74514;54.776;9.436;2024-03-02T08:28:04;91.63;;;30.75;;
35943;SDS011;74514;54.776;9.436;2024-03-02T08:30:32;79.25;;;27.20;;
35943;SDS011;74514;54.776;9.436;2024-03-02T08:32:59;72.43;;;25.90;;
35943;SDS011;74514;54.776;9.436;2024-03-02T08:35:27;74.03;;;24.98;;
35943;SDS011;74514;54.776;9.436;2024-03-02T08:37:55;65.97;;;24.15;;
35943;SDS011;74514;54.776;9.436;2024-03-02T08:40:22;72.60;;;26.13;;
35943;SDS011;74514;54.776;9.436;2024-03-02T08:42:49;74.35;;;27.05;;
35943;SDS011;74514;54.776;9.436;2024-03-02T08:45:17;68.72;;;26.23;;
35943;SDS011;74514;54.776;9.436;2024-03-02T08:47:47;68.35;;;24.77;;
35943;SDS011;74514;54.776;9.436;2024-03-02T08:50:15;67.68;;;26.77;;
35943;SDS011;74514;54.776;9.436;2024-03-02T08:52:42;66.63;;;25.38;;
35943;SDS011;74514;54.776;9.436;2024-03-02T08:55:10;69.78;;;25.02;;
35943;SDS011;74514;54.776;9.436;2024-03-02T08:57:38;68.57;;;24.20;;
35943;SDS011;74514;54.776;9.436;2024-03-02T09:00:05;69.78;;;24.02;;
35943;SDS011;74514;54.776;9.436;2024-03-02T09:02:35;65.22;;;24.45;;
35943;SDS011;74514;54.776;9.436;2024-03-02T09:05:05;70.20;;;25.13;;
35943;SDS011;74514;54.776;9.436;2024-03-02T09:07:34;65.20;;;25.10;;
35943;SDS011;74514;54.776;9.436;2024-03-02T09:10:05;58.80;;;20.95;;
35943;SDS011;74514;54.776;9.436;2024-03-02T09:12:33;64.25;;;23.90;;
35943;SDS011;74514;54.776;9.436;2024-03-02T09:15:01;60.35;;;22.95;;
35943;SDS011;74514;54.776;9.436;2024-03-02T09:17:29;67.53;;;22.83;;
35943;SDS011;74514;54.776;9.436;2024-03-02T09:19:56;60.25;;;23.33;;
35943;SDS011;74514;54.776;9.436;2024-03-02T09:22:24;56.58;;;20.42;;
35943;SDS011;74514;54.776;9.436;2024-03-02T09:24:51;64.05;;;22.98;;
35943;SDS011;74514;54.776;9.436;2024-03-02T09:27:19;47.80;;;19.13;;
35943;SDS011;74514;54.776;9.436;2024-03-02T09:29:46;48.28;;;18.63;;
35943;SDS011;74514;54.776;9.436;2024-03-02T09:32:13;60.72;;;22.30;;
35943;SDS011;74514;54.776;9.436;2024-03-02T09:34:41;59.25;;;22.35;;
35943;SDS011;74514;54.776;9.436;2024-03-02T09:37:08;55.25;;;22.65;;
35943;SDS011;74514;54.776;9.436;2024-03-02T09:39:36;55.17;;;21.20;;
35943;SDS011;74514;54.776;9.436;2024-03-02T09:42:03;58.67;;;23.27;;
35943;SDS011;74514;54.776;9.436;2024-03-02T09:44:31;53.97;;;20.45;;
35943;SDS011;74514;54.776;9.436;2024-03-02T09:47:00;51.25;;;22.05;;
35943;SDS011;74514;54.776;9.436;2024-03-02T09:49:27;61.72;;;21.60;;
35943;SDS011;74514;54.776;9.436;2024-03-02T09:51:54;48.58;;;20.20;;
35943;SDS011;74514;54.776;9.436;2024-03-02T09:54:22;48.53;;;19.88;;
35943;SDS011;74514;54.776;9.436;2024-03-02T09:56:50;50.53;;;20.00;;
35943;SDS011;74514;54.776;9.436;2024-03-02T09:59:18;54.53;;;20.27;;
35943;SDS011;74514;54.776;9.436;2024-03-02T10:04:25;53.22;;;20.33;;
35943;SDS011;74514;54.776;9.436;2024-03-02T10:07:12;48.92;;;19.73;;
35943;SDS011;74514;54.776;9.436;2024-03-02T10:09:46;46.58;;;18.25;;
35943;SDS011;74514;54.776;9.436;2024-03-02T10:12:15;52.08;;;19.25;;
35943;SDS011;74514;54.776;9.436;2024-03-02T10:14:42;43.08;;;18.65;;
35943;SDS011;74514;54.776;9.436;2024-03-02T10:17:10;51.05;;;21.27;;
35943;SDS011;74514;54.776;9.436;2024-03-02T10:19:38;59.13;;;21.30;;
35943;SDS011;74514;54.776;9.436;2024-03-02T10:22:09;47.13;;;19.05;;
35943;SDS011;74514;54.776;9.436;2024-03-02T10:24:41;46.17;;;19.42;;
35943;SDS011;74514;54.776;9.436;2024-03-02T10:29:37;48.83;;;18.73;;
35943;SDS011;74514;54.776;9.436;2024-03-02T10:32:04;47.28;;;17.13;;
35943;SDS011;74514;54.776;9.436;2024-03-02T10:34:33;48.17;;;18.92;;
35943;SDS011;74514;54.776;9.436;2024-03-02T10:37:01;53.03;;;20.75;;
35943;SDS011;74514;54.776;9.436;2024-03-02T10:39:31;44.50;;;19.00;;
35943;SDS011;74514;54.776;9.436;2024-03-02T10:41:58;51.65;;;20.30;;
35943;SDS011;74514;54.776;9.436;2024-03-02T10:44:26;45.30;;;17.83;;
35943;SDS011;74514;54.776;9.436;2024-03-02T10:46:53;41.63;;;16.80;;
35943;SDS011;74514;54.776;9.436;2024-03-02T10:49:21;43.15;;;17.33;;
35943;SDS011;74514;54.776;9.436;2024-03-02T10:51:49;44.85;;;18.23;;
35943;SDS011;74514;54.776;9.436;2024-03-02T10:54:17;40.13;;;17.17;;
35943;SDS011;74514;54.776;9.436;2024-03-02T10:56:45;45.00;;;17.90;;
35943;SDS011;74514;54.776;9.436;2024-03-02T11:01:56;44.05;;;16.75;;
35943;SDS011;74514;54.776;9.436;2024-03-02T11:04:32;45.10;;;18.23;;
35943;SDS011;74514;54.776;9.436;2024-03-02T11:07:04;41.85;;;18.08;;
35943;SDS011;74514;54.776;9.436;2024-03-02T11:09:35;42.00;;;18.00;;
35943;SDS011;74514;54.776;9.436;2024-03-02T11:12:19;45.83;;;19.20;;
35943;SDS011;74514;54.776;9.436;2024-03-02T11:14:46;43.90;;;18.00;;
35943;SDS011;74514;54.776;9.436;2024-03-02T11:17:14;46.85;;;19.50;;
35943;SDS011;74514;54.776;9.436;2024-03-02T11:19:45;42.42;;;16.75;;
35943;SDS011;74514;54.776;9.436;2024-03-02T11:22:13;44.65;;;17.92;;
35943;SDS011;74514;54.776;9.436;2024-03-02T11:24:50;39.78;;;17.05;;
35943;SDS011;74514;54.776;9.436;2024-03-02T11:33:01;36.75;;;16.58;;
35943;SDS011;74514;54.776;9.436;2024-03-02T11:35:41;38.75;;;17.15;;
35943;SDS011;74514;54.776;9.436;2024-03-02T11:38:12;44.83;;;17.30;;
35943;SDS011;74514;54.776;9.436;2024-03-02T11:40:40;42.58;;;19.17;;
35943;SDS011;74514;54.776;9.436;2024-03-02T11:43:07;41.75;;;17.33;;
35943;SDS011;74514;54.776;9.436;2024-03-02T11:45:38;38.55;;;16.63;;
35943;SDS011;74514;54.776;9.436;2024-03-02T11:48:15;42.20;;;18.25;;
35943;SDS011;74514;54.776;9.436;2024-03-02T11:50:46;39.22;;;17.17;;
35943;SDS011;74514;54.776;9.436;2024-03-02T11:53:14;41.17;;;17.67;;
35943;SDS011;74514;54.776;9.436;2024-03-02T11:55:41;34.03;;;16.02;;
35943;SDS011;74514;54.776;9.436;2024-03-02T11:58:14;37.72;;;16.48;;
35943;SDS011;74514;54.776;9.436;2024-03-02T12:00:42;45.97;;;16.70;;
35943;SDS011;74514;54.776;9.436;2024-03-02T12:03:10;34.10;;;14.93;;
35943;SDS011;74514;54.776;9.436;2024-03-02T12:05:39;37.90;;;16.10;;
35943;SDS011;74514;54.776;9.436;2024-03-02T12:08:06;41.75;;;16.42;;
35943;SDS011;74514;54.776;9.436;2024-03-02T12:10:35;36.05;;;15.45;;
35943;SDS011;74514;54.776;9.436;2024-03-02T12:13:04;44.45;;;17.98;;
35943;SDS011;74514;54.776;9.436;2024-03-02T12:15:33;37.70;;;15.30;;
35943;SDS011;74514;54.776;9.436;2024-03-02T12:18:01;38.30;;;17.30;;
35943;SDS011;74514;54.776;9.436;2024-03-02T12:23:00;38.13;;;15.98;;
35943;SDS011;74514;54.776;9.436;2024-03-02T12:25:28;39.53;;;16.60;;
35943;SDS011;74514;54.776;9.436;2024-03-02T12:27:56;37.65;;;15.80;;
35943;SDS011;74514;54.776;9.436;2024-03-02T12:30:23;43.08;;;16.55;;
35943;SDS011;74514;54.776;9.436;2024-03-02T12:32:51;35.92;;;14.60;;
35943;SDS011;74514;54.776;9.436;2024-03-02T12:35:18;34.88;;;15.95;;
35943;SDS011;74514;54.776;9.436;2024-03-02T12:37:47;34.42;;;15.15;;
35943;SDS011;74514;54.776;9.436;2024-03-02T12:40:15;36.38;;;15.23;;
35943;SDS011;74514;54.776;9.436;2024-03-02T12:42:45;34.92;;;15.35;;
35943;SDS011;74514;54.776;9.436;2024-03-02T12:45:12;32.22;;;14.75;;
35943;SDS011;74514;54.776;9.436;2024-03-02T12:47:40;34.70;;;15.43;;
35943;SDS011;74514;54.776;9.436;2024-03-02T12:50:09;34.45;;;15.02;;
35943;SDS011;74514;54.776;9.436;2024-03-02T12:52:37;28.95;;;13.88;;
35943;SDS011;74514;54.776;9.436;2024-03-02T12:55:04;33.75;;;14.90;;
35943;SDS011;74514;54.776;9.436;2024-03-02T12:57:32;34.20;;;14.25;;
35943;SDS011;74514;54.776;9.436;2024-03-02T13:00:01;34.13;;;16.13;;
35943;SDS011;74514;54.776;9.436;2024-03-02T13:02:29;37.40;;;15.73;;
35943;SDS011;74514;54.776;9.436;2024-03-02T13:04:57;32.83;;;15.32;;
35943;SDS011;74514;54.776;9.436;2024-03-02T13:07:25;32.33;;;15.32;;
35943;SDS011;74514;54.776;9.436;2024-03-02T13:09:53;31.05;;;14.32;;
35943;SDS011;74514;54.776;9.436;2024-03-02T13:12:23;32.47;;;13.98;;
35943;SDS011;74514;54.776;9.436;2024-03-02T13:14:51;29.08;;;13.55;;
35943;SDS011;74514;54.776;9.436;2024-03-02T13:17:19;30.52;;;14.45;;
35943;SDS011;74514;54.776;9.436;2024-03-02T13:19:56;31.58;;;13.63;;
35943;SDS011;74514;54.776;9.436;2024-03-02T13:22:24;28.98;;;13.30;;
35943;SDS011;74514;54.776;9.436;2024-03-02T13:27:20;32.75;;;13.90;;
35943;SDS011;74514;54.776;9.436;2024-03-02T13:32:15;30.42;;;13.68;;
35943;SDS011;74514;54.776;9.436;2024-03-02T13:34:42;27.65;;;13.25;;
35943;SDS011;74514;54.776;9.436;2024-03-02T13:37:10;32.30;;;13.88;;
35943;SDS011;74514;54.776;9.436;2024-03-02T13:39:37;23.98;;;11.70;;
35943;SDS011;74514;54.776;9.436;2024-03-02T13:42:09;33.45;;;14.10;;
35943;SDS011;74514;54.776;9.436;2024-03-02T13:44:37;27.42;;;13.30;;
35943;SDS011;74514;54.776;9.436;2024-03-02T13:47:05;33.50;;;14.85;;
35943;SDS011;74514;54.776;9.436;2024-03-02T13:49:32;29.45;;;13.52;;
35943;SDS011;74514;54.776;9.436;2024-03-02T13:52:07;30.08;;;13.13;;
35943;SDS011;74514;54.776;9.436;2024-03-02T13:54:41;31.92;;;14.00;;
35943;SDS011;74514;54.776;9.436;2024-03-02T13:57:09;27.10;;;13.32;;
35943;SDS011;74514;54.776;9.436;2024-03-02T14:02:04;27.98;;;12.80;;
35943;SDS011;74514;54.776;9.436;2024-03-02T14:07:17;22.60;;;11.10;;
35943;SDS011;74514;54.776;9.436;2024-03-02T14:09:44;24.05;;;11.45;;
35943;SDS011;74514;54.776;9.436;2024-03-02T14:12:13;24.55;;;12.20;;
35943;SDS011;74514;54.776;9.436;2024-03-02T14:14:41;24.63;;;12.02;;
35943;SDS011;74514;54.776;9.436;2024-03-02T14:17:09;23.58;;;10.73;;
35943;SDS011;74514;54.776;9.436;2024-03-02T14:19:42;28.15;;;11.18;;
35943;SDS011;74514;54.776;9.436;2024-03-02T14:22:11;26.20;;;11.45;;
35943;SDS011;74514;54.776;9.436;2024-03-02T14:24:41;22.23;;;10.65;;
35943;SDS011;74514;54.776;9.436;2024-03-02T14:27:10;24.95;;;12.30;;
35943;SDS011;74514;54.776;9.436;2024-03-02T14:29:54;27.33;;;11.18;;
35943;SDS011;74514;54.776;9.436;2024-03-02T14:32:21;28.98;;;11.90;;
35943;SDS011;74514;54.776;9.436;2024-03-02T14:34:49;23.30;;;9.88;;
35943;SDS011;74514;54.776;9.436;2024-03-02T14:37:16;23.65;;;10.77;;
35943;SDS011;74514;54.776;9.436;2024-03-02T14:39:43;25.30;;;11.00;;
35943;SDS011;74514;54.776;9.436;2024-03-02T14:42:11;23.00;;;10.10;;
35943;SDS011;74514;54.776;9.436;2024-03-02T14:44:38;29.58;;;11.98;;
35943;SDS011;74514;54.776;9.436;2024-03-02T14:47:06;23.73;;;11.18;;
35943;SDS011;74514;54.776;9.436;2024-03-02T14:52:04;24.23;;;10.05;;
35943;SDS011;74514;54.776;9.436;2024-03-02T14:54:31;25.83;;;10.30;;
35943;SDS011;74514;54.776;9.436;2024-03-02T14:56:59;26.85;;;11.20;;
35943;SDS011;74514;54.776;9.436;2024-03-02T14:59:26;25.75;;;10.88;;